sensor_id;sensor_type;location;lat;lon;timestamp;temperature;humidity
11840;DHT22;5979;50.800;4.904;2023-07-28T00:01:25;18.50;99.90
11840;DHT22;5979;50.800;4.904;2023-07-28T00:03:51;18.50;99.90
11840;DHT22;5979;50.800;4.904;2023-07-28T00:06:16;18.40;99.90
11840;DHT22;5979;50.800;4.904;2023-07-28T00:08:42;18.40;99.90
11840;DHT22;5979;50.800;4.904;2023-07-28T00:11:12;18.40;99.90
11840;DHT22;5979;50.800;4.904;2023-07-28T00:13:39;18.40;99.90
11840;DHT22;5979;50.800;4.904;2023-07-28T00:16:05;18.40;99.90
11840;DHT22;5979;50.800;4.904;2023-07-28T00:18:31;18.50;99.90
11840;DHT22;5979;50.800;4.904;2023-07-28T00:20:57;18.40;99.90
11840;DHT22;5979;50.800;4.904;2023-07-28T00:23:23;18.40;99.90
11840;DHT22;5979;50.800;4.904;2023-07-28T00:25:48;18.40;99.90
11840;DHT22;5979;50.800;4.904;2023-07-28T00:28:14;18.40;99.90
11840;DHT22;5979;50.800;4.904;2023-07-28T00:30:40;18.40;99.90
11840;DHT22;5979;50.800;4.904;2023-07-28T00:33:05;18.40;99.90
11840;DHT22;5979;50.800;4.904;2023-07-28T00:35:32;18.40;99.90
11840;DHT22;5979;50.800;4.904;2023-07-28T00:37:58;18.40;99.90
11840;DHT22;5979;50.800;4.904;2023-07-28T00:40:24;18.40;99.90
11840;DHT22;5979;50.800;4.904;2023-07-28T00:42:50;18.40;99.90
11840;DHT22;5979;50.800;4.904;2023-07-28T00:45:15;18.40;99.90
11840;DHT22;5979;50.800;4.904;2023-07-28T00:47:42;18.40;99.90
11840;DHT22;5979;50.800;4.904;2023-07-28T00:50:08;18.40;99.90
11840;DHT22;5979;50.800;4.904;2023-07-28T00:52:35;18.40;99.90
11840;DHT22;5979;50.800;4.904;2023-07-28T00:55:01;18.40;99.90
11840;DHT22;5979;50.800;4.904;2023-07-28T00:57:26;18.40;99.90
11840;DHT22;5979;50.800;4.904;2023-07-28T00:59:53;18.40;99.90
11840;DHT22;5979;50.800;4.904;2023-07-28T01:02:19;18.40;99.90
11840;DHT22;5979;50.800;4.904;2023-07-28T01:04:45;18.40;99.90
11840;DHT22;5979;50.800;4.904;2023-07-28T01:07:17;18.40;99.90
11840;DHT22;5979;50.800;4.904;2023-07-28T01:09:56;18.40;99.90
11840;DHT22;5979;50.800;4.904;2023-07-28T01:12:24;18.40;99.90
11840;DHT22;5979;50.800;4.904;2023-07-28T01:14:49;18.40;99.90
11840;DHT22;5979;50.800;4.904;2023-07-28T01:17:15;18.40;99.90
11840;DHT22;5979;50.800;4.904;2023-07-28T01:19:41;18.40;99.90
11840;DHT22;5979;50.800;4.904;2023-07-28T01:24:40;18.40;99.90
11840;DHT22;5979;50.800;4.904;2023-07-28T01:27:08;18.40;99.90
11840;DHT22;5979;50.800;4.904;2023-07-28T01:29:34;18.50;99.90
11840;DHT22;5979;50.800;4.904;2023-07-28T01:32:00;18.50;99.90
11840;DHT22;5979;50.800;4.904;2023-07-28T01:34:26;18.50;99.90
11840;DHT22;5979;50.800;4.904;2023-07-28T01:36:52;18.50;99.90
11840;DHT22;5979;50.800;4.904;2023-07-28T01:39:17;18.50;99.90
11840;DHT22;5979;50.800;4.904;2023-07-28T01:41:43;18.50;99.90
11840;DHT22;5979;50.800;4.904;2023-07-28T01:44:10;18.50;99.90
11840;DHT22;5979;50.800;4.904;2023-07-28T01:46:36;18.40;99.90
11840;DHT22;5979;50.800;4.904;2023-07-28T01:49:01;18.50;99.90
11840;DHT22;5979;50.800;4.904;2023-07-28T01:51:27;18.50;99.90
11840;DHT22;5979;50.800;4.904;2023-07-28T01:53:53;18.50;99.90
11840;DHT22;5979;50.800;4.904;2023-07-28T01:56:18;18.50;99.90
11840;DHT22;5979;50.800;4.904;2023-07-28T01:58:44;18.50;99.90
11840;DHT22;5979;50.800;4.904;2023-07-28T02:01:12;18.50;99.90
11840;DHT22;5979;50.800;4.904;2023-07-28T02:03:38;18.50;99.90
11840;DHT22;5979;50.800;4.904;2023-07-28T02:06:04;18.50;99.90
11840;DHT22;5979;50.800;4.904;2023-07-28T02:08:29;18.50;99.90
11840;DHT22;5979;50.800;4.904;2023-07-28T02:10:55;18.50;99.90
11840;DHT22;5979;50.800;4.904;2023-07-28T02:13:20;18.50;99.90
11840;DHT22;5979;50.800;4.904;2023-07-28T02:15:46;18.40;99.90
11840;DHT22;5979;50.800;4.904;2023-07-28T02:18:12;18.50;99.90
11840;DHT22;5979;50.800;4.904;2023-07-28T02:20:37;18.50;99.90
11840;DHT22;5979;50.800;4.904;2023-07-28T02:23:04;18.40;99.90
11840;DHT22;5979;50.800;4.904;2023-07-28T02:25:30;18.40;99.90
11840;DHT22;5979;50.800;4.904;2023-07-28T02:27:55;18.40;99.90
11840;DHT22;5979;50.800;4.904;2023-07-28T02:30:21;18.50;99.90
11840;DHT22;5979;50.800;4.904;2023-07-28T02:32:47;18.50;99.90
11840;DHT22;5979;50.800;4.904;2023-07-28T02:35:13;18.50;99.90
11840;DHT22;5979;50.800;4.904;2023-07-28T02:37:38;18.50;99.90
11840;DHT22;5979;50.800;4.904;2023-07-28T02:40:04;18.50;99.90
11840;DHT22;5979;50.800;4.904;2023-07-28T02:42:30;18.50;99.90
11840;DHT22;5979;50.800;4.904;2023-07-28T02:44:56;18.50;99.90
11840;DHT22;5979;50.800;4.904;2023-07-28T02:47:21;18.50;99.90
11840;DHT22;5979;50.800;4.904;2023-07-28T02:49:47;18.50;99.90
11840;DHT22;5979;50.800;4.904;2023-07-28T02:52:13;18.50;99.90
11840;DHT22;5979;50.800;4.904;2023-07-28T02:54:38;18.50;99.90
11840;DHT22;5979;50.800;4.904;2023-07-28T02:57:04;18.50;99.90
11840;DHT22;5979;50.800;4.904;2023-07-28T02:59:30;18.50;99.90
11840;DHT22;5979;50.800;4.904;2023-07-28T03:01:56;18.50;99.90
11840;DHT22;5979;50.800;4.904;2023-07-28T03:04:22;18.50;99.90
11840;DHT22;5979;50.800;4.904;2023-07-28T03:06:48;18.50;99.90
11840;DHT22;5979;50.800;4.904;2023-07-28T03:09:14;18.50;99.90
11840;DHT22;5979;50.800;4.904;2023-07-28T03:11:42;18.50;99.90
11840;DHT22;5979;50.800;4.904;2023-07-28T03:14:08;18.50;99.90
11840;DHT22;5979;50.800;4.904;2023-07-28T03:16:33;18.50;99.90
11840;DHT22;5979;50.800;4.904;2023-07-28T03:18:59;18.50;99.90
11840;DHT22;5979;50.800;4.904;2023-07-28T03:21:24;18.50;99.90
11840;DHT22;5979;50.800;4.904;2023-07-28T03:23:50;18.50;99.90
11840;DHT22;5979;50.800;4.904;2023-07-28T03:26:16;18.60;99.90
11840;DHT22;5979;50.800;4.904;2023-07-28T03:28:41;18.60;99.90
11840;DHT22;5979;50.800;4.904;2023-07-28T03:31:07;18.60;99.90
11840;DHT22;5979;50.800;4.904;2023-07-28T03:33:33;18.50;99.90
11840;DHT22;5979;50.800;4.904;2023-07-28T03:35:58;18.50;99.90
11840;DHT22;5979;50.800;4.904;2023-07-28T03:38:24;18.50;99.90
11840;DHT22;5979;50.800;4.904;2023-07-28T03:40:50;18.50;99.90
11840;DHT22;5979;50.800;4.904;2023-07-28T03:43:16;18.50;99.90
11840;DHT22;5979;50.800;4.904;2023-07-28T03:45:41;18.50;99.90
11840;DHT22;5979;50.800;4.904;2023-07-28T03:48:07;18.50;99.90
11840;DHT22;5979;50.800;4.904;2023-07-28T03:50:33;18.50;99.90
11840;DHT22;5979;50.800;4.904;2023-07-28T03:52:58;18.50;99.90
11840;DHT22;5979;50.800;4.904;2023-07-28T03:55:24;18.50;99.90
11840;DHT22;5979;50.800;4.904;2023-07-28T03:57:50;18.60;99.90
11840;DHT22;5979;50.800;4.904;2023-07-28T04:00:15;18.60;99.90
11840;DHT22;5979;50.800;4.904;2023-07-28T04:02:41;18.50;99.90
11840;DHT22;5979;50.800;4.904;2023-07-28T04:05:07;18.60;99.90
11840;DHT22;5979;50.800;4.904;2023-07-28T04:07:33;18.50;99.90
11840;DHT22;5979;50.800;4.904;2023-07-28T04:09:58;18.50;99.90
11840;DHT22;5979;50.800;4.904;2023-07-28T04:12:24;18.60;99.90
11840;DHT22;5979;50.800;4.904;2023-07-28T04:14:49;18.50;99.90
11840;DHT22;5979;50.800;4.904;2023-07-28T04:17:15;18.50;99.90
11840;DHT22;5979;50.800;4.904;2023-07-28T04:19:41;18.50;99.90
11840;DHT22;5979;50.800;4.904;2023-07-28T04:22:06;18.60;99.90
11840;DHT22;5979;50.800;4.904;2023-07-28T04:24:32;18.50;99.90
11840;DHT22;5979;50.800;4.904;2023-07-28T04:26:58;18.50;99.90
11840;DHT22;5979;50.800;4.904;2023-07-28T04:29:23;18.60;99.90
11840;DHT22;5979;50.800;4.904;2023-07-28T04:31:49;18.60;99.90
11840;DHT22;5979;50.800;4.904;2023-07-28T04:34:15;18.60;99.90
11840;DHT22;5979;50.800;4.904;2023-07-28T04:36:40;18.60;99.90
11840;DHT22;5979;50.800;4.904;2023-07-28T04:39:06;18.60;99.90
11840;DHT22;5979;50.800;4.904;2023-07-28T04:41:32;18.70;99.90
11840;DHT22;5979;50.800;4.904;2023-07-28T04:43:57;18.70;99.90
11840;DHT22;5979;50.800;4.904;2023-07-28T04:46:23;18.70;99.90
11840;DHT22;5979;50.800;4.904;2023-07-28T04:48:48;18.70;99.90
11840;DHT22;5979;50.800;4.904;2023-07-28T04:51:14;18.70;99.90
11840;DHT22;5979;50.800;4.904;2023-07-28T04:53:40;18.70;99.90
11840;DHT22;5979;50.800;4.904;2023-07-28T04:56:05;18.80;99.90
11840;DHT22;5979;50.800;4.904;2023-07-28T04:58:31;18.80;99.90
11840;DHT22;5979;50.800;4.904;2023-07-28T05:00:57;18.70;99.90
11840;DHT22;5979;50.800;4.904;2023-07-28T05:03:23;18.80;99.90
11840;DHT22;5979;50.800;4.904;2023-07-28T05:05:49;18.80;99.90
11840;DHT22;5979;50.800;4.904;2023-07-28T05:08:15;18.80;99.90
11840;DHT22;5979;50.800;4.904;2023-07-28T05:10:41;18.80;99.90
11840;DHT22;5979;50.800;4.904;2023-07-28T05:13:08;18.80;99.90
11840;DHT22;5979;50.800;4.904;2023-07-28T05:15:34;18.80;99.90
11840;DHT22;5979;50.800;4.904;2023-07-28T05:17:59;18.80;99.90
11840;DHT22;5979;50.800;4.904;2023-07-28T05:20:25;18.80;99.90
11840;DHT22;5979;50.800;4.904;2023-07-28T05:22:51;18.90;99.90
11840;DHT22;5979;50.800;4.904;2023-07-28T05:25:17;18.90;99.90
11840;DHT22;5979;50.800;4.904;2023-07-28T05:27:42;18.90;99.90
11840;DHT22;5979;50.800;4.904;2023-07-28T05:30:08;18.90;99.90
11840;DHT22;5979;50.800;4.904;2023-07-28T05:32:34;19.00;99.90
11840;DHT22;5979;50.800;4.904;2023-07-28T05:35:00;19.00;99.90
11840;DHT22;5979;50.800;4.904;2023-07-28T05:37:25;19.10;99.90
11840;DHT22;5979;50.800;4.904;2023-07-28T05:39:51;19.10;99.90
11840;DHT22;5979;50.800;4.904;2023-07-28T05:42:16;19.20;99.90
11840;DHT22;5979;50.800;4.904;2023-07-28T05:44:42;19.30;99.90
11840;DHT22;5979;50.800;4.904;2023-07-28T05:47:08;19.40;99.90
11840;DHT22;5979;50.800;4.904;2023-07-28T05:49:33;19.50;99.90
11840;DHT22;5979;50.800;4.904;2023-07-28T05:51:59;19.60;99.90
11840;DHT22;5979;50.800;4.904;2023-07-28T05:54:25;19.70;99.90
11840;DHT22;5979;50.800;4.904;2023-07-28T05:56:50;19.70;99.90
11840;DHT22;5979;50.800;4.904;2023-07-28T05:59:16;19.70;99.90
11840;DHT22;5979;50.800;4.904;2023-07-28T06:01:42;19.80;99.90
11840;DHT22;5979;50.800;4.904;2023-07-28T06:04:07;19.90;99.90
11840;DHT22;5979;50.800;4.904;2023-07-28T06:06:33;20.00;99.90
11840;DHT22;5979;50.800;4.904;2023-07-28T06:08:59;20.10;99.90
11840;DHT22;5979;50.800;4.904;2023-07-28T06:11:24;20.20;99.90
11840;DHT22;5979;50.800;4.904;2023-07-28T06:13:50;20.30;99.90
11840;DHT22;5979;50.800;4.904;2023-07-28T06:16:16;20.40;99.90
11840;DHT22;5979;50.800;4.904;2023-07-28T06:18:42;20.40;99.90
11840;DHT22;5979;50.800;4.904;2023-07-28T06:21:07;20.50;99.90
11840;DHT22;5979;50.800;4.904;2023-07-28T06:23:33;20.40;99.90
11840;DHT22;5979;50.800;4.904;2023-07-28T06:25:59;20.30;99.90
11840;DHT22;5979;50.800;4.904;2023-07-28T06:28:24;20.30;99.90
11840;DHT22;5979;50.800;4.904;2023-07-28T06:30:57;20.20;99.90
11840;DHT22;5979;50.800;4.904;2023-07-28T06:33:28;20.10;99.90
11840;DHT22;5979;50.800;4.904;2023-07-28T06:35:54;20.10;99.90
11840;DHT22;5979;50.800;4.904;2023-07-28T06:38:20;20.10;99.90
11840;DHT22;5979;50.800;4.904;2023-07-28T06:40:45;20.10;99.90
11840;DHT22;5979;50.800;4.904;2023-07-28T06:43:11;20.10;99.90
11840;DHT22;5979;50.800;4.904;2023-07-28T06:45:37;20.00;99.90
11840;DHT22;5979;50.800;4.904;2023-07-28T06:48:03;20.10;99.90
11840;DHT22;5979;50.800;4.904;2023-07-28T06:50:29;20.10;99.90
11840;DHT22;5979;50.800;4.904;2023-07-28T06:52:55;20.10;99.90
11840;DHT22;5979;50.800;4.904;2023-07-28T06:55:21;20.10;99.90
11840;DHT22;5979;50.800;4.904;2023-07-28T06:57:47;20.20;99.90
11840;DHT22;5979;50.800;4.904;2023-07-28T07:00:14;20.30;99.90
11840;DHT22;5979;50.800;4.904;2023-07-28T07:02:40;20.40;99.90
11840;DHT22;5979;50.800;4.904;2023-07-28T07:05:06;20.40;99.90
11840;DHT22;5979;50.800;4.904;2023-07-28T07:07:32;20.40;99.90
11840;DHT22;5979;50.800;4.904;2023-07-28T07:09:58;20.50;99.90
11840;DHT22;5979;50.800;4.904;2023-07-28T07:12:25;20.50;99.90
11840;DHT22;5979;50.800;4.904;2023-07-28T07:14:51;20.60;99.90
11840;DHT22;5979;50.800;4.904;2023-07-28T07:17:17;20.70;99.90
11840;DHT22;5979;50.800;4.904;2023-07-28T07:19:43;20.70;99.90
11840;DHT22;5979;50.800;4.904;2023-07-28T07:22:09;20.80;99.90
11840;DHT22;5979;50.800;4.904;2023-07-28T07:24:35;20.90;99.90
11840;DHT22;5979;50.800;4.904;2023-07-28T07:27:00;21.00;99.90
11840;DHT22;5979;50.800;4.904;2023-07-28T07:29:26;21.20;99.90
11840;DHT22;5979;50.800;4.904;2023-07-28T07:31:52;21.50;99.90
11840;DHT22;5979;50.800;4.904;2023-07-28T07:34:22;21.80;99.90
11840;DHT22;5979;50.800;4.904;2023-07-28T07:36:48;22.00;99.90
11840;DHT22;5979;50.800;4.904;2023-07-28T07:39:14;22.20;99.90
11840;DHT22;5979;50.800;4.904;2023-07-28T07:41:40;22.30;99.90
11840;DHT22;5979;50.800;4.904;2023-07-28T07:44:06;22.50;99.90
11840;DHT22;5979;50.800;4.904;2023-07-28T07:46:32;22.30;99.90
11840;DHT22;5979;50.800;4.904;2023-07-28T07:48:58;22.30;99.90
11840;DHT22;5979;50.800;4.904;2023-07-28T07:51:23;22.30;99.90
11840;DHT22;5979;50.800;4.904;2023-07-28T07:53:49;22.20;99.90
11840;DHT22;5979;50.800;4.904;2023-07-28T07:56:15;22.10;99.90
11840;DHT22;5979;50.800;4.904;2023-07-28T07:58:40;22.10;99.90
11840;DHT22;5979;50.800;4.904;2023-07-28T08:01:06;22.00;99.90
11840;DHT22;5979;50.800;4.904;2023-07-28T08:03:32;22.10;99.90
11840;DHT22;5979;50.800;4.904;2023-07-28T08:05:58;22.10;99.90
11840;DHT22;5979;50.800;4.904;2023-07-28T08:08:23;22.10;99.90
11840;DHT22;5979;50.800;4.904;2023-07-28T08:10:52;22.20;99.90
11840;DHT22;5979;50.800;4.904;2023-07-28T08:13:18;22.20;99.90
11840;DHT22;5979;50.800;4.904;2023-07-28T08:15:44;22.20;99.90
11840;DHT22;5979;50.800;4.904;2023-07-28T08:18:11;22.20;99.90
11840;DHT22;5979;50.800;4.904;2023-07-28T08:20:36;22.20;99.90
11840;DHT22;5979;50.800;4.904;2023-07-28T08:23:02;22.20;99.90
11840;DHT22;5979;50.800;4.904;2023-07-28T08:25:28;22.20;99.90
11840;DHT22;5979;50.800;4.904;2023-07-28T08:27:54;22.20;99.90
11840;DHT22;5979;50.800;4.904;2023-07-28T08:30:19;22.30;99.90
11840;DHT22;5979;50.800;4.904;2023-07-28T08:32:45;22.30;99.90
11840;DHT22;5979;50.800;4.904;2023-07-28T08:35:11;22.50;99.90
11840;DHT22;5979;50.800;4.904;2023-07-28T08:37:36;22.60;99.90
11840;DHT22;5979;50.800;4.904;2023-07-28T08:40:03;22.70;99.90
11840;DHT22;5979;50.800;4.904;2023-07-28T08:42:34;22.80;99.90
11840;DHT22;5979;50.800;4.904;2023-07-28T08:45:02;23.10;99.90
11840;DHT22;5979;50.800;4.904;2023-07-28T08:47:30;23.30;99.90
11840;DHT22;5979;50.800;4.904;2023-07-28T08:49:56;23.60;99.90
11840;DHT22;5979;50.800;4.904;2023-07-28T08:52:22;23.70;99.90
11840;DHT22;5979;50.800;4.904;2023-07-28T08:54:49;23.90;99.90
11840;DHT22;5979;50.800;4.904;2023-07-28T08:57:15;24.10;99.90
11840;DHT22;5979;50.800;4.904;2023-07-28T08:59:41;24.30;99.90
11840;DHT22;5979;50.800;4.904;2023-07-28T09:02:14;24.70;99.90
11840;DHT22;5979;50.800;4.904;2023-07-28T09:04:42;25.00;99.90
11840;DHT22;5979;50.800;4.904;2023-07-28T09:07:07;25.10;99.90
11840;DHT22;5979;50.800;4.904;2023-07-28T09:09:35;25.10;99.90
11840;DHT22;5979;50.800;4.904;2023-07-28T09:12:01;25.30;99.90
11840;DHT22;5979;50.800;4.904;2023-07-28T09:14:27;25.30;99.90
11840;DHT22;5979;50.800;4.904;2023-07-28T09:16:53;25.20;99.90
11840;DHT22;5979;50.800;4.904;2023-07-28T09:19:20;25.20;99.90
11840;DHT22;5979;50.800;4.904;2023-07-28T09:21:57;25.10;99.90
11840;DHT22;5979;50.800;4.904;2023-07-28T09:24:33;25.10;99.90
11840;DHT22;5979;50.800;4.904;2023-07-28T09:26:59;24.90;99.90
11840;DHT22;5979;50.800;4.904;2023-07-28T09:29:26;24.60;99.90
11840;DHT22;5979;50.800;4.904;2023-07-28T09:32:04;24.40;99.90
11840;DHT22;5979;50.800;4.904;2023-07-28T09:34:30;24.20;99.90
11840;DHT22;5979;50.800;4.904;2023-07-28T09:36:57;24.00;99.90
11840;DHT22;5979;50.800;4.904;2023-07-28T09:39:23;23.90;99.90
11840;DHT22;5979;50.800;4.904;2023-07-28T09:41:49;23.70;99.90
11840;DHT22;5979;50.800;4.904;2023-07-28T09:44:15;23.60;99.90
11840;DHT22;5979;50.800;4.904;2023-07-28T09:46:52;23.60;99.90
11840;DHT22;5979;50.800;4.904;2023-07-28T09:49:27;23.60;99.90
11840;DHT22;5979;50.800;4.904;2023-07-28T09:51:54;23.70;99.90
11840;DHT22;5979;50.800;4.904;2023-07-28T09:54:25;23.80;99.90
11840;DHT22;5979;50.800;4.904;2023-07-28T09:56:55;23.90;99.90
11840;DHT22;5979;50.800;4.904;2023-07-28T09:59:29;24.10;99.90
11840;DHT22;5979;50.800;4.904;2023-07-28T10:01:58;24.20;99.90
11840;DHT22;5979;50.800;4.904;2023-07-28T10:04:24;24.10;99.90
11840;DHT22;5979;50.800;4.904;2023-07-28T10:06:51;24.00;99.90
11840;DHT22;5979;50.800;4.904;2023-07-28T10:09:28;23.90;99.90
11840;DHT22;5979;50.800;4.904;2023-07-28T10:11:56;23.80;99.90
11840;DHT22;5979;50.800;4.904;2023-07-28T10:14:29;23.70;99.90
11840;DHT22;5979;50.800;4.904;2023-07-28T10:16:57;23.60;99.90
11840;DHT22;5979;50.800;4.904;2023-07-28T10:19:27;23.50;99.90
11840;DHT22;5979;50.800;4.904;2023-07-28T10:22:09;23.40;99.90
11840;DHT22;5979;50.800;4.904;2023-07-28T10:24:55;23.30;99.90
11840;DHT22;5979;50.800;4.904;2023-07-28T10:27:31;23.20;99.90
11840;DHT22;5979;50.800;4.904;2023-07-28T10:29:58;23.20;99.90
11840;DHT22;5979;50.800;4.904;2023-07-28T10:32:28;23.20;99.90
11840;DHT22;5979;50.800;4.904;2023-07-28T10:35:03;23.30;99.90
11840;DHT22;5979;50.800;4.904;2023-07-28T10:37:31;23.30;99.90
11840;DHT22;5979;50.800;4.904;2023-07-28T10:42:57;23.50;99.90
11840;DHT22;5979;50.800;4.904;2023-07-28T10:45:25;23.60;99.90
11840;DHT22;5979;50.800;4.904;2023-07-28T10:47:52;23.60;99.90
11840;DHT22;5979;50.800;4.904;2023-07-28T10:50:20;23.50;99.90
11840;DHT22;5979;50.800;4.904;2023-07-28T10:52:46;23.20;99.90
11840;DHT22;5979;50.800;4.904;2023-07-28T10:57:42;22.90;99.90
11840;DHT22;5979;50.800;4.904;2023-07-28T11:00:09;22.70;99.90
11840;DHT22;5979;50.800;4.904;2023-07-28T11:02:47;22.60;99.90
11840;DHT22;5979;50.800;4.904;2023-07-28T11:05:20;22.50;99.90
11840;DHT22;5979;50.800;4.904;2023-07-28T11:07:46;22.50;99.90
11840;DHT22;5979;50.800;4.904;2023-07-28T11:10:13;22.50;99.90
11840;DHT22;5979;50.800;4.904;2023-07-28T11:12:47;22.50;99.90
11840;DHT22;5979;50.800;4.904;2023-07-28T11:15:14;22.30;99.90
11840;DHT22;5979;50.800;4.904;2023-07-28T11:17:41;22.10;99.90
11840;DHT22;5979;50.800;4.904;2023-07-28T11:20:20;22.00;99.90
11840;DHT22;5979;50.800;4.904;2023-07-28T11:23:00;21.90;99.90
11840;DHT22;5979;50.800;4.904;2023-07-28T11:25:27;21.90;99.90
11840;DHT22;5979;50.800;4.904;2023-07-28T11:27:54;22.00;99.90
11840;DHT22;5979;50.800;4.904;2023-07-28T11:30:21;22.10;99.90
11840;DHT22;5979;50.800;4.904;2023-07-28T11:32:49;22.10;99.90
11840;DHT22;5979;50.800;4.904;2023-07-28T11:35:17;22.00;99.90
11840;DHT22;5979;50.800;4.904;2023-07-28T11:37:45;22.10;99.90
11840;DHT22;5979;50.800;4.904;2023-07-28T11:40:11;22.20;99.90
11840;DHT22;5979;50.800;4.904;2023-07-28T11:42:39;22.40;99.90
11840;DHT22;5979;50.800;4.904;2023-07-28T11:45:06;22.50;99.90
11840;DHT22;5979;50.800;4.904;2023-07-28T11:47:32;22.70;99.90
11840;DHT22;5979;50.800;4.904;2023-07-28T11:49:58;22.90;99.90
11840;DHT22;5979;50.800;4.904;2023-07-28T11:52:34;22.90;99.90
11840;DHT22;5979;50.800;4.904;2023-07-28T11:55:04;23.10;99.90
11840;DHT22;5979;50.800;4.904;2023-07-28T11:57:31;23.30;99.90
11840;DHT22;5979;50.800;4.904;2023-07-28T11:59:58;23.40;99.90
11840;DHT22;5979;50.800;4.904;2023-07-28T12:02:31;23.60;99.90
11840;DHT22;5979;50.800;4.904;2023-07-28T12:04:57;23.90;99.90
11840;DHT22;5979;50.800;4.904;2023-07-28T12:10:03;24.20;99.90
11840;DHT22;5979;50.800;4.904;2023-07-28T12:12:40;24.30;99.90
11840;DHT22;5979;50.800;4.904;2023-07-28T12:15:23;24.40;99.90
11840;DHT22;5979;50.800;4.904;2023-07-28T12:20:45;24.30;99.90
11840;DHT22;5979;50.800;4.904;2023-07-28T12:23:15;24.10;99.90
11840;DHT22;5979;50.800;4.904;2023-07-28T12:25:42;23.90;99.90
11840;DHT22;5979;50.800;4.904;2023-07-28T12:28:08;23.70;99.90
11840;DHT22;5979;50.800;4.904;2023-07-28T12:30:35;23.60;99.90
11840;DHT22;5979;50.800;4.904;2023-07-28T12:33:01;23.50;99.90
11840;DHT22;5979;50.800;4.904;2023-07-28T12:35:31;23.50;99.90
11840;DHT22;5979;50.800;4.904;2023-07-28T12:38:03;23.40;99.90
11840;DHT22;5979;50.800;4.904;2023-07-28T12:40:31;23.40;99.90
11840;DHT22;5979;50.800;4.904;2023-07-28T12:42:57;23.40;99.90
11840;DHT22;5979;50.800;4.904;2023-07-28T12:45:23;23.40;99.90
11840;DHT22;5979;50.800;4.904;2023-07-28T12:47:52;23.60;99.90
11840;DHT22;5979;50.800;4.904;2023-07-28T12:50:18;23.70;99.90
11840;DHT22;5979;50.800;4.904;2023-07-28T12:52:44;23.90;99.90
11840;DHT22;5979;50.800;4.904;2023-07-28T12:55:10;24.10;99.90
11840;DHT22;5979;50.800;4.904;2023-07-28T12:57:35;24.30;99.90
11840;DHT22;5979;50.800;4.904;2023-07-28T13:00:01;24.40;99.90
11840;DHT22;5979;50.800;4.904;2023-07-28T13:02:32;24.60;99.90
11840;DHT22;5979;50.800;4.904;2023-07-28T13:04:57;24.70;99.90
11840;DHT22;5979;50.800;4.904;2023-07-28T13:07:23;24.80;99.90
11840;DHT22;5979;50.800;4.904;2023-07-28T13:09:49;24.80;99.90
11840;DHT22;5979;50.800;4.904;2023-07-28T13:12:14;24.90;99.90
11840;DHT22;5979;50.800;4.904;2023-07-28T13:14:40;25.10;99.90
11840;DHT22;5979;50.800;4.904;2023-07-28T13:17:05;25.30;99.90
11840;DHT22;5979;50.800;4.904;2023-07-28T13:19:31;25.40;99.90
11840;DHT22;5979;50.800;4.904;2023-07-28T13:21:57;25.40;99.90
11840;DHT22;5979;50.800;4.904;2023-07-28T13:24:22;25.30;99.90
11840;DHT22;5979;50.800;4.904;2023-07-28T13:26:48;25.20;99.90
11840;DHT22;5979;50.800;4.904;2023-07-28T13:29:14;25.00;99.90
11840;DHT22;5979;50.800;4.904;2023-07-28T13:31:40;24.90;99.90
11840;DHT22;5979;50.800;4.904;2023-07-28T13:34:05;24.90;99.90
11840;DHT22;5979;50.800;4.904;2023-07-28T13:36:31;24.90;99.90
11840;DHT22;5979;50.800;4.904;2023-07-28T13:38:57;24.90;99.90
11840;DHT22;5979;50.800;4.904;2023-07-28T13:41:22;24.90;99.90
11840;DHT22;5979;50.800;4.904;2023-07-28T13:43:48;25.00;99.90
11840;DHT22;5979;50.800;4.904;2023-07-28T13:46:13;25.00;99.90
11840;DHT22;5979;50.800;4.904;2023-07-28T13:48:39;25.00;99.90
11840;DHT22;5979;50.800;4.904;2023-07-28T13:51:05;25.00;99.90
11840;DHT22;5979;50.800;4.904;2023-07-28T13:53:31;25.10;99.90
11840;DHT22;5979;50.800;4.904;2023-07-28T13:55:57;25.10;99.90
11840;DHT22;5979;50.800;4.904;2023-07-28T13:58:23;25.30;99.90
11840;DHT22;5979;50.800;4.904;2023-07-28T14:00:49;25.40;99.90
11840;DHT22;5979;50.800;4.904;2023-07-28T14:03:14;25.40;99.90
11840;DHT22;5979;50.800;4.904;2023-07-28T14:05:41;25.40;99.90
11840;DHT22;5979;50.800;4.904;2023-07-28T14:08:07;25.40;99.90
11840;DHT22;5979;50.800;4.904;2023-07-28T14:10:33;25.40;99.90
11840;DHT22;5979;50.800;4.904;2023-07-28T14:12:59;25.40;99.90
11840;DHT22;5979;50.800;4.904;2023-07-28T14:15:25;25.40;99.90
11840;DHT22;5979;50.800;4.904;2023-07-28T14:17:50;25.40;99.90
11840;DHT22;5979;50.800;4.904;2023-07-28T14:20:16;25.40;99.90
11840;DHT22;5979;50.800;4.904;2023-07-28T14:22:42;25.50;99.90
11840;DHT22;5979;50.800;4.904;2023-07-28T14:25:08;25.50;99.90
11840;DHT22;5979;50.800;4.904;2023-07-28T14:27:33;25.40;99.90
11840;DHT22;5979;50.800;4.904;2023-07-28T14:29:59;25.20;99.90
11840;DHT22;5979;50.800;4.904;2023-07-28T14:32:25;25.20;99.90
11840;DHT22;5979;50.800;4.904;2023-07-28T14:34:50;25.10;99.90
11840;DHT22;5979;50.800;4.904;2023-07-28T14:37:16;25.10;99.90
11840;DHT22;5979;50.800;4.904;2023-07-28T14:39:42;25.10;99.90
11840;DHT22;5979;50.800;4.904;2023-07-28T14:42:08;25.00;99.90
11840;DHT22;5979;50.800;4.904;2023-07-28T14:44:33;25.00;99.90
11840;DHT22;5979;50.800;4.904;2023-07-28T14:46:59;25.00;99.90
11840;DHT22;5979;50.800;4.904;2023-07-28T14:49:25;25.00;99.90
11840;DHT22;5979;50.800;4.904;2023-07-28T14:51:54;25.10;99.90
11840;DHT22;5979;50.800;4.904;2023-07-28T14:54:20;25.20;99.90
11840;DHT22;5979;50.800;4.904;2023-07-28T14:56:45;25.40;99.90
11840;DHT22;5979;50.800;4.904;2023-07-28T14:59:11;25.40;99.90
11840;DHT22;5979;50.800;4.904;2023-07-28T15:01:37;25.50;99.90
11840;DHT22;5979;50.800;4.904;2023-07-28T15:04:02;25.40;99.90
11840;DHT22;5979;50.800;4.904;2023-07-28T15:06:30;25.40;99.90
11840;DHT22;5979;50.800;4.904;2023-07-28T15:08:56;25.40;99.90
11840;DHT22;5979;50.800;4.904;2023-07-28T15:11:22;25.40;99.90
11840;DHT22;5979;50.800;4.904;2023-07-28T15:13:47;25.40;99.90
11840;DHT22;5979;50.800;4.904;2023-07-28T15:16:13;25.40;99.90
11840;DHT22;5979;50.800;4.904;2023-07-28T15:18:39;25.40;99.90
11840;DHT22;5979;50.800;4.904;2023-07-28T15:21:04;25.40;99.90
11840;DHT22;5979;50.800;4.904;2023-07-28T15:23:30;25.30;99.90
11840;DHT22;5979;50.800;4.904;2023-07-28T15:25:56;25.30;99.90
11840;DHT22;5979;50.800;4.904;2023-07-28T15:28:25;25.30;99.90
11840;DHT22;5979;50.800;4.904;2023-07-28T15:30:50;25.20;99.90
11840;DHT22;5979;50.800;4.904;2023-07-28T15:33:18;25.20;99.90
11840;DHT22;5979;50.800;4.904;2023-07-28T15:35:44;25.30;99.90
11840;DHT22;5979;50.800;4.904;2023-07-28T15:38:11;25.30;99.90
11840;DHT22;5979;50.800;4.904;2023-07-28T15:40:36;25.30;99.90
11840;DHT22;5979;50.800;4.904;2023-07-28T15:43:02;25.30;99.90
11840;DHT22;5979;50.800;4.904;2023-07-28T15:45:31;25.30;99.90
11840;DHT22;5979;50.800;4.904;2023-07-28T15:47:58;25.30;99.90
11840;DHT22;5979;50.800;4.904;2023-07-28T15:50:24;25.30;99.90
11840;DHT22;5979;50.800;4.904;2023-07-28T15:52:50;25.30;99.90
11840;DHT22;5979;50.800;4.904;2023-07-28T15:55:17;25.30;99.90